createdAt,value
2023-03-18T00:01:09.947Z,10.63
2023-03-18T00:03:39.909Z,10.90
2023-03-18T00:06:12.324Z,10.70
2023-03-18T00:08:41.118Z,11.07
2023-03-18T00:11:11.371Z,12.50
2023-03-18T00:13:40.052Z,12.25
2023-03-18T00:16:10.384Z,11.55
2023-03-18T00:18:39.351Z,11.32
2023-03-18T00:21:06.793Z,11.32
2023-03-18T00:23:34.909Z,10.85
2023-03-18T00:26:02.670Z,10.93
2023-03-18T00:28:31.745Z,11.32
2023-03-18T00:31:09.149Z,9.32
2023-03-18T00:33:38.273Z,9.88
2023-03-18T00:36:06.999Z,10.05
2023-03-18T00:38:35.729Z,9.27
2023-03-18T00:41:12.183Z,9.70
2023-03-18T00:46:26.607Z,9.65
2023-03-18T00:48:57.617Z,9.25
2023-03-18T00:51:27.091Z,10.32
2023-03-18T00:53:56.603Z,10.18
2023-03-18T00:56:28.057Z,10.02
2023-03-18T00:58:55.532Z,10.10
2023-03-18T01:01:25.144Z,10.15
2023-03-18T01:03:55.095Z,10.55
2023-03-18T01:06:33.754Z,9.98
2023-03-18T01:09:02.701Z,9.43
2023-03-18T01:11:30.188Z,8.80
2023-03-18T01:13:59.523Z,9.57
2023-03-18T01:16:27.138Z,8.75
2023-03-18T01:18:54.487Z,9.48
2023-03-18T01:21:22.614Z,9.30
2023-03-18T01:23:49.954Z,8.82
2023-03-18T01:26:17.911Z,9.13
2023-03-18T01:28:47.571Z,9.25
2023-03-18T01:31:15.520Z,8.35
2023-03-18T01:33:42.980Z,8.23
2023-03-18T01:36:11.843Z,9.30
2023-03-18T01:38:40.915Z,9.10
2023-03-18T01:41:08.932Z,9.82
2023-03-18T01:43:40.780Z,8.82
2023-03-18T01:46:38.200Z,8.95
2023-03-18T01:51:43.821Z,8.27
2023-03-18T01:54:13.225Z,8.52
2023-03-18T01:56:43.056Z,9.20
2023-03-18T01:59:15.127Z,8.52
2023-03-18T02:02:01.964Z,8.60
2023-03-18T02:04:35.269Z,7.93
2023-03-18T02:07:03.283Z,8.07
2023-03-18T02:09:31.173Z,8.73
2023-03-18T02:11:59.671Z,9.05
2023-03-18T02:14:28.626Z,9.45
2023-03-18T02:17:06.472Z,9.77
2023-03-18T02:20:20.982Z,9.93
2023-03-18T02:22:53.964Z,9.75
2023-03-18T02:25:53.386Z,9.77
2023-03-18T02:28:25.560Z,9.48
2023-03-18T02:30:57.449Z,10.85
2023-03-18T02:33:29.123Z,10.10
2023-03-18T02:36:03.229Z,11.60
2023-03-18T02:38:31.205Z,11.65
2023-03-18T02:40:58.806Z,10.10
2023-03-18T02:43:29.154Z,10.80
2023-03-18T02:46:16.780Z,10.68
2023-03-18T02:48:46.097Z,10.30
2023-03-18T02:51:14.940Z,9.63
2023-03-18T02:53:45.792Z,10.88
2023-03-18T02:56:13.635Z,11.55
2023-03-18T02:58:41.325Z,11.40
2023-03-18T03:01:12.265Z,12.20
2023-03-18T03:03:40.222Z,11.50
2023-03-18T03:06:08.938Z,11.23
2023-03-18T03:08:36.714Z,11.75
2023-03-18T03:11:04.980Z,13.35
2023-03-18T03:13:32.742Z,12.00
2023-03-18T03:16:00.346Z,11.65
2023-03-18T03:18:28.524Z,11.82
2023-03-18T03:20:56.129Z,11.77
2023-03-18T03:23:23.523Z,12.20
2023-03-18T03:25:51.137Z,11.57
2023-03-18T03:28:18.427Z,12.68
2023-03-18T03:30:46.342Z,11.63
2023-03-18T03:33:14.486Z,12.68
2023-03-18T03:35:42.180Z,10.73
2023-03-18T03:38:10.632Z,10.50
2023-03-18T03:40:41.300Z,12.02
2023-03-18T03:43:11.896Z,11.13
2023-03-18T03:45:39.926Z,11.35
2023-03-18T03:48:10.866Z,11.63
2023-03-18T03:50:39.834Z,11.95
2023-03-18T03:53:07.352Z,11.45
2023-03-18T03:55:35.550Z,11.25
2023-03-18T03:58:02.982Z,11.57
2023-03-18T04:00:31.155Z,12.43
2023-03-18T04:02:59.831Z,11.45
2023-03-18T04:05:28.742Z,12.25
2023-03-18T04:08:00.909Z,11.23
2023-03-18T04:10:28.351Z,11.77
2023-03-18T04:12:56.123Z,10.73
2023-03-18T04:15:23.518Z,11.40
2023-03-18T04:17:52.183Z,11.05
2023-03-18T04:20:19.899Z,10.07
2023-03-18T04:22:47.353Z,11.80
2023-03-18T04:25:14.983Z,10.48
2023-03-18T04:27:43.273Z,9.80
2023-03-18T04:30:12.949Z,10.98
2023-03-18T04:32:40.570Z,11.25
2023-03-18T04:35:09.265Z,11.77
2023-03-18T04:37:38.686Z,11.23
2023-03-18T04:40:06.814Z,12.00
2023-03-18T04:42:34.321Z,9.60
2023-03-18T04:45:02.021Z,10.25
2023-03-18T04:47:29.363Z,10.20
2023-03-18T04:49:56.644Z,11.43
2023-03-18T04:52:24.571Z,10.95
2023-03-18T04:54:53.223Z,11.25
2023-03-18T04:57:21.228Z,11.02
2023-03-18T04:59:48.531Z,12.15
2023-03-18T05:02:15.845Z,11.63
2023-03-18T05:04:43.292Z,10.57
2023-03-18T05:07:15.401Z,10.90
2023-03-18T05:09:43.671Z,9.70
2023-03-18T05:12:15.249Z,11.02
2023-03-18T05:14:44.780Z,11.10
2023-03-18T05:17:15.986Z,11.23
2023-03-18T05:19:48.201Z,10.98
2023-03-18T05:22:17.708Z,10.73
2023-03-18T05:24:48.609Z,10.48
2023-03-18T05:27:18.484Z,11.43
2023-03-18T05:29:46.386Z,11.35
2023-03-18T05:32:14.894Z,9.13
2023-03-18T05:34:43.257Z,9.63
2023-03-18T05:37:13.195Z,11.45
2023-03-18T05:39:40.630Z,9.90
2023-03-18T05:42:09.305Z,11.50
2023-03-18T05:44:36.875Z,10.43
2023-03-18T05:47:04.339Z,10.10
2023-03-18T05:49:32.175Z,10.48
2023-03-18T05:51:59.667Z,10.60
2023-03-18T05:54:27.245Z,10.55
2023-03-18T05:56:56.074Z,10.95
2023-03-18T05:59:24.141Z,10.40
2023-03-18T06:01:52.779Z,10.02
2023-03-18T06:04:20.278Z,10.77
2023-03-18T06:06:48.381Z,9.63
2023-03-18T06:09:16.623Z,11.25
2023-03-18T06:11:44.710Z,10.32
2023-03-18T06:14:13.562Z,10.80
2023-03-18T06:16:42.301Z,10.85
2023-03-18T06:19:11.897Z,10.23
2023-03-18T06:21:39.889Z,9.23
2023-03-18T06:24:08.248Z,10.88
2023-03-18T06:26:35.844Z,9.88
2023-03-18T06:29:04.137Z,9.55
2023-03-18T06:31:32.371Z,9.00
2023-03-18T06:34:01.391Z,8.93
2023-03-18T06:36:28.927Z,9.77
2023-03-18T06:38:58.301Z,10.82
2023-03-18T06:41:26.897Z,8.68
2023-03-18T06:43:54.308Z,9.32
2023-03-18T06:46:22.861Z,7.88
2023-03-18T06:48:50.139Z,7.90
2023-03-18T06:51:17.942Z,6.57
2023-03-18T06:53:45.486Z,7.95
2023-03-18T06:56:16.066Z,6.80
2023-03-18T06:58:43.559Z,7.25
2023-03-18T07:01:13.219Z,7.22
2023-03-18T07:03:40.848Z,5.72
2023-03-18T07:06:10.361Z,7.45
2023-03-18T07:08:38.452Z,6.03
2023-03-18T07:11:07.561Z,6.78
2023-03-18T07:13:34.855Z,5.20
2023-03-18T07:16:02.358Z,6.18
2023-03-18T07:18:30.557Z,6.22
2023-03-18T07:20:57.861Z,5.78
2023-03-18T07:23:25.172Z,6.53
2023-03-18T07:25:52.876Z,6.28
2023-03-18T07:28:20.264Z,6.97
2023-03-18T07:30:48.297Z,7.10
2023-03-18T07:33:15.841Z,7.30
2023-03-18T07:35:43.736Z,6.07
2023-03-18T07:38:11.964Z,7.15
2023-03-18T07:40:39.635Z,6.72
2023-03-18T07:43:07.295Z,7.93
2023-03-18T07:45:37.324Z,8.70
2023-03-18T07:48:05.666Z,8.93
2023-03-18T07:50:34.097Z,9.27
2023-03-18T07:53:01.636Z,9.80
2023-03-18T07:55:28.940Z,10.63
2023-03-18T07:57:56.313Z,10.30
2023-03-18T08:00:23.839Z,11.40
2023-03-18T08:02:51.334Z,10.63
2023-03-18T08:05:19.919Z,11.35
2023-03-18T08:07:47.209Z,10.93
2023-03-18T08:10:16.214Z,12.00
2023-03-18T08:12:52.570Z,11.35
2023-03-18T08:15:22.372Z,10.80
2023-03-18T08:17:51.314Z,11.23
2023-03-18T08:20:21.697Z,10.55
2023-03-18T08:22:50.570Z,10.63
2023-03-18T08:25:20.548Z,9.38
2023-03-18T08:27:47.914Z,9.40
2023-03-18T08:30:16.521Z,9.23
2023-03-18T08:32:44.682Z,9.43
2023-03-18T08:35:13.251Z,9.45
2023-03-18T08:37:40.544Z,10.85
2023-03-18T08:40:09.952Z,8.18
2023-03-18T08:42:38.589Z,7.38
2023-03-18T08:45:07.828Z,8.05
2023-03-18T08:47:35.225Z,7.10
2023-03-18T08:50:03.058Z,8.18
2023-03-18T08:52:30.888Z,5.90
2023-03-18T08:55:01.014Z,6.15
2023-03-18T08:57:28.428Z,5.93
2023-03-18T08:59:55.801Z,6.35
2023-03-18T09:02:23.636Z,6.95
2023-03-18T09:04:51.324Z,6.32
2023-03-18T09:07:19.246Z,7.55
2023-03-18T09:09:47.647Z,7.45
2023-03-18T09:12:15.285Z,7.07
2023-03-18T09:14:44.057Z,9.02
2023-03-18T09:17:11.549Z,7.30
2023-03-18T09:19:38.888Z,6.28
2023-03-18T09:22:06.736Z,5.75
2023-03-18T09:24:37.944Z,5.70
2023-03-18T09:27:05.616Z,5.55
2023-03-18T09:29:33.266Z,4.65
2023-03-18T09:32:00.849Z,4.47
2023-03-18T09:34:28.551Z,4.63
2023-03-18T09:36:58.237Z,4.68
2023-03-18T09:39:26.054Z,5.00
2023-03-18T09:42:03.156Z,4.40
2023-03-18T09:44:35.799Z,3.60
2023-03-18T09:47:12.491Z,3.97
2023-03-18T09:50:10.809Z,4.78
2023-03-18T09:52:40.450Z,4.32
2023-03-18T09:55:46.537Z,4.00
2023-03-18T09:58:28.095Z,4.53
2023-03-18T10:01:03.243Z,4.13
2023-03-18T10:03:52.654Z,4.35
2023-03-18T10:06:22.153Z,3.63
2023-03-18T10:09:06.679Z,2.90
2023-03-18T10:11:42.681Z,3.55
2023-03-18T10:14:26.742Z,2.92
2023-03-18T10:17:24.101Z,2.78
2023-03-18T10:23:02.705Z,2.60
2023-03-18T10:25:36.080Z,2.85
2023-03-18T10:28:27.995Z,2.67
2023-03-18T10:31:16.555Z,1.80
2023-03-18T10:34:06.708Z,2.20
2023-03-18T10:37:04.350Z,2.50
2023-03-18T10:39:33.815Z,2.45
2023-03-18T10:42:16.712Z,4.00
2023-03-18T10:44:45.624Z,3.13
2023-03-18T10:47:25.346Z,2.97
2023-03-18T10:50:20.933Z,2.80
2023-03-18T10:53:01.541Z,2.78
2023-03-18T10:55:38.086Z,2.63
2023-03-18T11:00:43.404Z,2.58
2023-03-18T11:03:39.956Z,2.33
2023-03-18T11:06:16.298Z,2.40
2023-03-18T11:08:48.197Z,2.92
2023-03-18T11:11:22.054Z,2.72
2023-03-18T11:13:55.946Z,2.67
2023-03-18T11:16:26.637Z,2.35
2023-03-18T11:18:57.114Z,2.42
2023-03-18T11:21:26.041Z,2.60
2023-03-18T11:24:21.040Z,2.50
2023-03-18T11:26:56.203Z,2.10
2023-03-18T11:29:27.809Z,2.35
2023-03-18T11:31:59.725Z,2.67
2023-03-18T11:34:32.556Z,2.55
2023-03-18T11:37:04.751Z,2.60
2023-03-18T11:39:37.582Z,2.70
2023-03-18T11:42:22.444Z,2.70
2023-03-18T11:44:55.613Z,2.20
2023-03-18T11:47:28.793Z,2.95
2023-03-18T11:49:57.655Z,2.72
2023-03-18T11:52:49.978Z,2.47
2023-03-18T11:55:38.273Z,2.90
2023-03-18T11:58:14.714Z,4.00
2023-03-18T12:00:59.965Z,4.32
2023-03-18T12:04:06.430Z,2.53
2023-03-18T12:06:42.999Z,3.95
2023-03-18T12:09:22.001Z,2.22
2023-03-18T12:12:02.553Z,2.50
2023-03-18T12:15:07.511Z,1.42
2023-03-18T12:18:03.541Z,3.47
2023-03-18T12:20:52.584Z,1.75
2023-03-18T12:23:31.972Z,1.48
2023-03-18T12:26:08.471Z,1.35
2023-03-18T12:31:41.092Z,1.90
2023-03-18T12:34:43.122Z,1.10
2023-03-18T12:37:32.454Z,1.17
2023-03-18T12:40:15.527Z,1.40
2023-03-18T12:42:54.766Z,1.10
2023-03-18T12:45:28.291Z,1.27
2023-03-18T12:48:03.442Z,1.33
2023-03-18T12:50:36.591Z,1.30
2023-03-18T12:53:33.097Z,1.13
2023-03-18T12:56:21.992Z,1.30
2023-03-18T12:58:57.253Z,1.17
2023-03-18T13:01:36.388Z,1.50
2023-03-18T13:04:14.814Z,1.80
2023-03-18T13:06:56.721Z,1.58
2023-03-18T13:09:41.244Z,1.73
2023-03-18T13:12:32.247Z,1.77
2023-03-18T13:15:08.398Z,1.58
2023-03-18T13:17:42.247Z,1.75
2023-03-18T13:20:14.725Z,1.60
2023-03-18T13:22:47.986Z,1.35
2023-03-18T13:25:42.004Z,1.98
2023-03-18T13:28:38.456Z,2.10
2023-03-18T13:31:33.652Z,2.92
2023-03-18T13:34:26.514Z,2.08
2023-03-18T13:59:33.646Z,2.28
2023-03-18T14:02:31.961Z,1.50
2023-03-18T14:04:59.797Z,1.70
2023-03-18T14:07:28.778Z,4.38
2023-03-18T14:10:18.017Z,2.08
2023-03-18T14:12:49.038Z,2.05
2023-03-18T14:15:16.313Z,1.90
2023-03-18T14:17:49.502Z,1.48
2023-03-18T14:20:18.845Z,1.40
2023-03-18T14:22:56.718Z,1.50
2023-03-18T14:25:56.263Z,1.20
2023-03-18T14:28:26.573Z,1.00
2023-03-18T14:31:12.746Z,1.40
2023-03-18T14:34:16.616Z,1.60
2023-03-18T14:36:46.725Z,1.40
2023-03-18T14:39:38.589Z,1.52
2023-03-18T14:42:26.913Z,1.65
2023-03-18T14:45:00.468Z,1.88
2023-03-18T14:47:39.539Z,2.03
2023-03-18T14:50:24.474Z,1.83
2023-03-18T14:52:56.931Z,1.73
2023-03-18T14:55:31.689Z,1.95
2023-03-18T14:57:59.423Z,2.38
2023-03-18T15:00:31.517Z,2.50
2023-03-18T15:03:05.757Z,2.40
2023-03-18T15:05:40.074Z,2.28
2023-03-18T15:08:19.198Z,2.17
2023-03-18T15:10:51.761Z,2.58
2023-03-18T15:13:21.811Z,2.33
2023-03-18T15:15:50.780Z,2.45
2023-03-18T15:18:36.500Z,2.40
2023-03-18T15:21:08.953Z,2.97
2023-03-18T15:23:58.337Z,2.92
2023-03-18T15:26:36.200Z,3.00
2023-03-18T15:29:29.605Z,3.20
2023-03-18T15:32:18.941Z,2.60
2023-03-18T15:35:13.193Z,2.63
2023-03-18T15:37:42.940Z,3.10
2023-03-18T15:40:23.306Z,2.20
2023-03-18T15:42:51.100Z,1.77
2023-03-18T15:45:25.334Z,2.00
2023-03-18T15:47:53.582Z,1.50
2023-03-18T15:50:34.423Z,1.30
2023-03-18T15:53:05.192Z,1.35
2023-03-18T15:55:34.364Z,1.35
2023-03-18T15:58:05.858Z,1.65
2023-03-18T16:00:34.880Z,1.50
2023-03-18T16:03:02.226Z,0.88
2023-03-18T16:05:29.682Z,1.60
2023-03-18T16:07:57.945Z,2.83
2023-03-18T16:10:26.509Z,2.47
2023-03-18T16:12:59.479Z,2.45
2023-03-18T16:15:28.043Z,2.10
2023-03-18T16:18:00.148Z,2.60
2023-03-18T16:20:29.573Z,2.67
2023-03-18T16:22:58.117Z,2.83
2023-03-18T16:25:26.664Z,3.03
2023-03-18T16:27:57.815Z,2.30
2023-03-18T16:30:31.534Z,2.03
2023-03-18T16:32:59.635Z,2.38
2023-03-18T16:35:32.771Z,2.58
2023-03-18T16:38:01.252Z,2.38
2023-03-18T16:40:31.463Z,2.20
2023-03-18T16:42:59.979Z,2.20
2023-03-18T16:45:30.649Z,3.08
2023-03-18T16:48:01.941Z,2.75
2023-03-18T16:50:38.815Z,1.92
2023-03-18T16:53:33.463Z,2.50
2023-03-18T16:56:10.820Z,2.13
2023-03-18T16:58:38.274Z,2.05
2023-03-18T17:01:07.473Z,1.92
2023-03-18T17:03:36.107Z,1.20
2023-03-18T17:06:03.730Z,1.30
2023-03-18T17:08:31.182Z,1.67
2023-03-18T17:11:02.210Z,1.30
2023-03-18T17:13:34.650Z,1.20
2023-03-18T17:16:02.002Z,1.88
2023-03-18T17:18:30.268Z,1.48
2023-03-18T17:20:58.635Z,1.67
2023-03-18T17:23:28.617Z,1.83
2023-03-18T17:26:00.902Z,1.40
2023-03-18T17:28:44.611Z,1.40
2023-03-18T17:31:13.459Z,1.70
2023-03-18T17:33:46.625Z,2.05
2023-03-18T17:36:13.920Z,2.25
2023-03-18T17:38:43.708Z,1.60
2023-03-18T17:41:19.316Z,2.08
2023-03-18T17:43:47.402Z,2.30
2023-03-18T17:46:14.823Z,1.90
2023-03-18T17:48:42.212Z,2.40
2023-03-18T17:51:18.786Z,1.85
2023-03-18T17:53:53.648Z,1.83
2023-03-18T17:56:21.073Z,1.90
2023-03-18T17:58:51.669Z,1.73
2023-03-18T18:01:26.712Z,1.48
2023-03-18T18:04:00.553Z,1.92
2023-03-18T18:06:29.681Z,1.98
2023-03-18T18:09:00.326Z,1.63
2023-03-18T18:11:40.696Z,2.05
2023-03-18T18:14:29.141Z,1.65
2023-03-18T18:16:57.221Z,2.00
2023-03-18T18:19:24.672Z,1.73
2023-03-18T18:21:54.131Z,2.15
2023-03-18T18:24:30.069Z,1.63
2023-03-18T18:26:57.713Z,2.22
2023-03-18T18:29:28.192Z,2.50
2023-03-18T18:31:58.410Z,2.72
2023-03-18T18:34:25.697Z,2.40
2023-03-18T18:36:52.992Z,3.15
2023-03-18T18:39:21.103Z,2.83
2023-03-18T18:41:48.797Z,4.75
2023-03-18T18:44:16.450Z,5.25
2023-03-18T18:46:44.050Z,3.17
2023-03-18T18:49:22.279Z,3.63
2023-03-18T18:51:55.306Z,3.78
2023-03-18T18:54:24.242Z,3.70
2023-03-18T18:56:54.646Z,3.38
2023-03-18T18:59:27.075Z,3.20
2023-03-18T19:01:55.716Z,3.50
2023-03-18T19:04:23.793Z,3.10
2023-03-18T19:06:52.720Z,3.10
2023-03-18T19:09:23.816Z,4.10
2023-03-18T19:11:54.760Z,4.32
2023-03-18T19:14:31.733Z,4.05
2023-03-18T19:16:59.897Z,4.00
2023-03-18T19:19:34.873Z,4.63
2023-03-18T19:22:06.778Z,4.53
2023-03-18T19:24:40.355Z,4.70
2023-03-18T19:27:32.475Z,6.05
2023-03-18T19:30:05.531Z,4.72
2023-03-18T19:32:33.076Z,5.55
2023-03-18T19:35:00.499Z,4.90
2023-03-18T19:37:34.126Z,5.45
2023-03-18T19:40:16.483Z,5.28
2023-03-18T19:42:43.904Z,5.15
2023-03-18T19:45:13.403Z,5.32
2023-03-18T19:47:42.171Z,5.35
2023-03-18T19:50:21.236Z,5.05
2023-03-18T19:52:48.824Z,6.53
2023-03-18T19:55:17.918Z,6.80
2023-03-18T19:57:49.143Z,7.15
2023-03-18T20:00:25.796Z,5.90
2023-03-18T20:02:56.027Z,6.22
2023-03-18T20:05:25.838Z,6.50
2023-03-18T20:07:54.269Z,7.40
2023-03-18T20:10:27.151Z,7.18
2023-03-18T20:12:54.512Z,7.38
2023-03-18T20:15:29.200Z,6.50
2023-03-18T20:17:58.593Z,7.10
2023-03-18T20:20:32.696Z,7.13
2023-03-18T20:23:10.398Z,6.90
2023-03-18T20:25:41.506Z,6.63
2023-03-18T20:28:16.734Z,6.38
2023-03-18T20:30:45.452Z,6.13
2023-03-18T20:33:14.449Z,6.22
2023-03-18T20:35:43.674Z,6.53
2023-03-18T20:38:20.854Z,5.90
2023-03-18T20:40:51.076Z,6.45
2023-03-18T20:43:21.028Z,5.63
2023-03-18T20:45:51.973Z,5.95
2023-03-18T20:48:21.752Z,5.97
2023-03-18T20:50:50.019Z,5.97
2023-03-18T20:53:26.214Z,5.38
2023-03-18T20:55:53.612Z,5.25
2023-03-18T20:58:23.423Z,6.05
2023-03-18T21:00:53.306Z,5.00
2023-03-18T21:03:30.685Z,5.88
2023-03-18T21:06:00.464Z,5.32
2023-03-18T21:08:28.489Z,5.20
2023-03-18T21:10:59.011Z,5.43
2023-03-18T21:13:29.137Z,6.25
2023-03-18T21:15:58.081Z,5.90
2023-03-18T21:18:26.683Z,5.32
2023-03-18T21:20:56.491Z,6.80
2023-03-18T21:23:26.786Z,4.93
2023-03-18T21:25:56.068Z,5.38
2023-03-18T21:28:25.619Z,5.13
2023-03-18T21:30:58.120Z,5.00
2023-03-18T21:33:34.839Z,4.55
2023-03-18T21:36:02.761Z,4.57
2023-03-18T21:38:32.003Z,4.88
2023-03-18T21:41:01.794Z,4.50
2023-03-18T21:43:37.234Z,4.63
2023-03-18T21:46:07.600Z,4.57
2023-03-18T21:48:36.130Z,4.90
2023-03-18T21:51:05.273Z,4.60
2023-03-18T21:53:33.036Z,4.57
2023-03-18T21:56:02.649Z,3.60
2023-03-18T21:58:30.036Z,3.67
2023-03-18T22:01:01.104Z,5.65
2023-03-18T22:03:30.616Z,4.10
2023-03-18T22:05:58.188Z,3.63
2023-03-18T22:08:25.917Z,4.00
2023-03-18T22:10:53.497Z,3.63
2023-03-18T22:13:26.409Z,3.53
2023-03-18T22:15:55.847Z,3.92
2023-03-18T22:18:25.928Z,4.28
2023-03-18T22:20:53.350Z,3.92
2023-03-18T22:23:31.299Z,3.60
2023-03-18T22:25:58.776Z,3.58
2023-03-18T22:28:28.171Z,4.15
2023-03-18T22:30:56.368Z,4.25
2023-03-18T22:33:33.190Z,3.58
2023-03-18T22:36:01.681Z,3.17
2023-03-18T22:38:29.317Z,3.72
2023-03-18T22:40:57.665Z,3.17
2023-03-18T22:43:43.702Z,3.38
2023-03-18T22:46:12.985Z,3.35
2023-03-18T22:48:40.584Z,3.17
2023-03-18T22:51:08.128Z,3.42
2023-03-18T22:53:40.360Z,3.33
2023-03-18T22:56:15.939Z,3.25
2023-03-18T22:58:43.752Z,3.23
2023-03-18T23:01:24.816Z,4.05
2023-03-18T23:03:52.282Z,3.42
2023-03-18T23:06:24.097Z,4.07
2023-03-18T23:08:51.494Z,3.90
2023-03-18T23:11:19.055Z,3.85
2023-03-18T23:13:52.822Z,4.47
2023-03-18T23:16:22.220Z,4.32
2023-03-18T23:18:50.620Z,4.65
2023-03-18T23:21:20.937Z,4.05
2023-03-18T23:23:48.723Z,3.85
2023-03-18T23:26:17.268Z,3.88
2023-03-18T23:28:47.739Z,4.47
2023-03-18T23:31:16.280Z,4.07
2023-03-18T23:33:46.017Z,5.32
2023-03-18T23:36:13.422Z,4.15
2023-03-18T23:38:41.309Z,3.95
2023-03-18T23:41:09.113Z,4.50
2023-03-18T23:43:38.838Z,3.80
2023-03-18T23:46:06.465Z,3.83
2023-03-18T23:48:34.093Z,4.25
2023-03-18T23:51:01.381Z,4.00
2023-03-18T23:53:30.128Z,3.92
2023-03-18T23:55:57.582Z,4.07
2023-03-18T23:58:24.878Z,4.07
